createdAt,value
2023-02-03T00:01:20.302Z,73.95
2023-02-03T00:04:28.297Z,73.63
2023-02-03T00:07:50.358Z,73.52
2023-02-03T00:10:53.030Z,72.80
2023-02-03T00:14:07.355Z,73.10
2023-02-03T00:17:15.297Z,72.96
2023-02-03T00:20:24.752Z,72.41
2023-02-03T00:23:40.288Z,72.78
2023-02-03T00:26:43.196Z,72.03
2023-02-03T00:29:58.348Z,72.18
2023-02-03T00:33:00.246Z,71.34
2023-02-03T00:36:16.304Z,71.66
2023-02-03T00:39:25.362Z,71.01
2023-02-03T00:42:35.853Z,70.23
2023-02-03T00:45:44.333Z,69.80
2023-02-03T00:48:53.268Z,69.42
2023-02-03T00:52:01.373Z,69.31
2023-02-03T00:55:10.003Z,68.72
2023-02-03T00:58:18.344Z,68.22
2023-02-03T01:01:33.624Z,68.32
2023-02-03T01:04:35.702Z,67.97
2023-02-03T01:07:57.342Z,67.95
2023-02-03T01:11:09.387Z,68.49
2023-02-03T01:14:17.334Z,68.59
2023-02-03T01:17:26.165Z,67.14
2023-02-03T01:20:34.393Z,67.55
2023-02-03T01:23:50.336Z,67.42
2023-02-03T01:26:52.221Z,67.91
2023-02-03T01:30:07.361Z,67.99
2023-02-03T01:33:09.317Z,68.20
2023-02-03T01:36:25.417Z,68.61
2023-02-03T01:39:34.265Z,67.85
2023-02-03T01:42:42.361Z,68.13
2023-02-03T01:45:57.397Z,68.26
2023-02-03T01:49:19.917Z,68.33
2023-02-03T01:52:28.352Z,67.87
2023-02-03T01:55:49.359Z,67.77
2023-02-03T01:58:51.850Z,67.01
2023-02-03T02:02:07.404Z,66.74
2023-02-03T02:05:16.261Z,66.66
2023-02-03T02:08:38.419Z,67.77
2023-02-03T02:11:53.402Z,68.48
2023-02-03T02:15:03.096Z,68.68
2023-02-03T02:18:35.345Z,70.05
2023-02-03T02:21:56.581Z,69.27
2023-02-03T02:25:31.371Z,70.05
2023-02-03T02:29:00.389Z,68.29
2023-02-03T02:32:34.318Z,68.65
2023-02-03T02:36:16.435Z,68.87
2023-02-03T02:39:54.452Z,68.70
2023-02-03T02:43:29.394Z,69.43
2023-02-03T02:46:44.439Z,67.96
2023-02-03T02:50:13.440Z,66.89
2023-02-03T02:53:24.441Z,66.34
2023-02-03T02:56:36.496Z,66.29
2023-02-03T02:59:44.376Z,66.79
2023-02-03T03:02:59.377Z,66.33
2023-02-03T03:06:12.379Z,66.35
2023-02-03T03:09:32.375Z,66.12
2023-02-03T03:12:38.036Z,66.00
2023-02-03T03:15:52.421Z,65.54
2023-02-03T03:19:07.359Z,65.38
2023-02-03T03:22:27.444Z,66.45
2023-02-03T03:25:45.351Z,66.01
2023-02-03T03:29:03.726Z,65.25
2023-02-03T03:32:12.377Z,65.08
2023-02-03T03:35:21.131Z,65.17
2023-02-03T03:38:37.391Z,64.76
2023-02-03T03:42:03.211Z,64.29
2023-02-03T03:45:21.369Z,64.44
2023-02-03T03:48:53.458Z,64.05
2023-02-03T03:52:01.319Z,63.51
2023-02-03T03:55:19.466Z,64.32
2023-02-03T03:58:27.902Z,63.78
2023-02-03T04:01:43.555Z,64.21
2023-02-03T04:04:48.088Z,63.36
2023-02-03T04:08:09.434Z,63.76
2023-02-03T04:11:18.387Z,62.99
2023-02-03T04:14:34.409Z,63.16
2023-02-03T04:17:36.257Z,62.66
2023-02-03T04:20:51.441Z,61.09
2023-02-03T04:23:59.424Z,60.80
2023-02-03T04:27:09.151Z,61.11
2023-02-03T04:30:18.458Z,61.55
2023-02-03T04:33:27.180Z,61.24
2023-02-03T04:36:35.398Z,61.24
2023-02-03T04:39:44.626Z,60.95
2023-02-03T04:42:59.384Z,60.76
2023-02-03T04:46:07.479Z,59.97
2023-02-03T04:49:16.046Z,58.60
2023-02-03T04:52:30.567Z,58.65
2023-02-03T04:55:32.571Z,60.31
2023-02-03T04:58:47.496Z,59.80
2023-02-03T05:01:55.418Z,59.67
2023-02-03T05:05:04.368Z,60.15
2023-02-03T05:08:19.479Z,60.36
2023-02-03T05:11:28.558Z,60.62
2023-02-03T05:14:37.399Z,60.35
2023-02-03T05:17:52.448Z,60.55
2023-02-03T05:21:01.379Z,59.89
2023-02-03T05:24:09.463Z,60.67
2023-02-03T05:27:18.119Z,58.85
2023-02-03T05:30:26.896Z,57.54
2023-02-03T05:33:35.152Z,56.75
2023-02-03T05:36:43.528Z,55.96
2023-02-03T05:39:58.492Z,56.86
2023-02-03T05:43:06.462Z,57.82
2023-02-03T05:46:21.471Z,56.27
2023-02-03T05:49:24.366Z,56.51
2023-02-03T05:52:40.483Z,56.86
2023-02-03T05:55:42.320Z,58.32
2023-02-03T05:58:57.441Z,57.57
2023-02-03T06:02:06.429Z,58.44
2023-02-03T06:05:15.128Z,58.79
2023-02-03T06:08:32.955Z,58.90
2023-02-03T06:11:41.292Z,59.70
2023-02-03T06:14:49.443Z,58.54
2023-02-03T06:17:58.108Z,59.31
2023-02-03T06:21:13.411Z,58.90
2023-02-03T06:24:21.440Z,58.58
2023-02-03T06:27:30.153Z,60.12
2023-02-03T06:30:38.548Z,59.46
2023-02-03T06:33:47.092Z,58.91
2023-02-03T06:36:55.469Z,59.55
2023-02-03T06:40:11.573Z,59.07
2023-02-03T06:43:20.488Z,58.20
2023-02-03T06:46:35.517Z,57.11
2023-02-03T06:49:44.064Z,57.43
2023-02-03T06:52:52.636Z,57.50
2023-02-03T06:56:01.235Z,57.05
2023-02-03T06:59:13.559Z,57.68
2023-02-03T07:02:22.402Z,57.59
2023-02-03T07:05:37.537Z,56.72
2023-02-03T07:08:52.525Z,55.39
2023-02-03T07:12:01.531Z,54.16
2023-02-03T07:15:17.765Z,54.13
2023-02-03T07:21:55.691Z,52.91
2023-02-03T07:25:11.488Z,52.66
2023-02-03T07:28:23.289Z,61.10
2023-02-03T07:31:31.772Z,50.09
2023-02-03T07:34:46.528Z,58.08
2023-02-03T07:37:54.502Z,52.44
2023-02-03T07:41:10.529Z,45.73
2023-02-03T07:44:12.909Z,52.17
2023-02-03T07:47:27.535Z,50.51
2023-02-03T07:50:36.743Z,48.46
2023-02-03T07:53:45.571Z,49.83
2023-02-03T07:57:00.499Z,51.62
2023-02-03T08:00:03.581Z,50.12
2023-02-03T08:03:20.499Z,49.88
2023-02-03T08:06:23.110Z,49.72
2023-02-03T08:09:44.485Z,51.14
2023-02-03T08:13:01.528Z,50.54
2023-02-03T08:16:11.350Z,50.47
2023-02-03T08:19:26.485Z,54.03
2023-02-03T08:22:35.296Z,52.19
2023-02-03T08:25:43.532Z,53.75
2023-02-03T08:28:59.508Z,54.20
2023-02-03T08:32:11.811Z,53.62
2023-02-03T08:35:24.568Z,58.71
2023-02-03T08:39:04.925Z,53.67
2023-02-03T08:42:20.493Z,53.33
2023-02-03T08:45:35.674Z,52.74
2023-02-03T08:48:44.547Z,54.75
2023-02-03T08:51:54.069Z,55.97
2023-02-03T08:55:03.612Z,58.34
2023-02-03T08:58:18.654Z,60.21
2023-02-03T09:01:33.582Z,58.09
2023-02-03T09:04:35.535Z,57.84
2023-02-03T09:07:52.288Z,58.06
2023-02-03T09:10:57.405Z,60.70
2023-02-03T09:14:12.543Z,61.53
2023-02-03T09:17:14.707Z,65.21
2023-02-03T09:20:30.015Z,67.27
2023-02-03T09:23:32.662Z,70.68
2023-02-03T09:26:47.550Z,73.62
2023-02-03T09:29:55.648Z,75.42
2023-02-03T09:33:04.192Z,78.42
2023-02-03T09:36:13.525Z,80.89
2023-02-03T09:39:23.296Z,82.87
2023-02-03T09:42:48.519Z,84.73
2023-02-03T09:46:05.586Z,85.90
2023-02-03T09:49:35.608Z,87.38
2023-02-03T09:52:51.535Z,88.42
2023-02-03T09:55:54.885Z,89.06
2023-02-03T09:59:11.604Z,89.32
2023-02-03T10:03:11.557Z,89.45
2023-02-03T10:06:43.532Z,89.65
2023-02-03T10:10:38.555Z,90.00
2023-02-03T10:14:16.572Z,90.02
2023-02-03T10:17:40.499Z,91.88
2023-02-03T10:21:01.568Z,88.09
2023-02-03T10:24:10.347Z,83.06
2023-02-03T10:27:29.548Z,82.39
2023-02-03T10:30:46.678Z,82.85
2023-02-03T10:34:00.419Z,84.07
2023-02-03T10:37:32.580Z,84.74
2023-02-03T10:40:47.589Z,86.40
2023-02-03T10:43:51.903Z,87.20
2023-02-03T10:47:06.554Z,86.46
2023-02-03T10:50:29.427Z,86.79
2023-02-03T10:53:34.921Z,87.33
2023-02-03T10:56:49.589Z,87.42
2023-02-03T11:00:22.342Z,88.26
2023-02-03T11:03:35.573Z,86.94
2023-02-03T11:10:39.239Z,89.77
2023-02-03T11:13:58.712Z,87.99
2023-02-03T11:17:07.782Z,88.56
2023-02-03T11:20:23.692Z,89.43
2023-02-03T11:23:26.095Z,90.17
2023-02-03T11:26:46.584Z,93.21
2023-02-03T11:30:00.568Z,88.34
2023-02-03T11:33:19.881Z,88.52
2023-02-03T11:36:29.591Z,87.87
2023-02-03T11:39:38.252Z,84.57
2023-02-03T11:42:48.571Z,85.06
2023-02-03T11:46:10.829Z,82.33
2023-02-03T11:49:34.479Z,84.68
2023-02-03T11:53:10.651Z,86.10
2023-02-03T11:56:53.558Z,88.45
2023-02-03T12:00:10.059Z,86.67
2023-02-03T12:03:44.628Z,86.28
2023-02-03T12:07:08.565Z,83.36
2023-02-03T12:10:40.572Z,85.54
2023-02-03T12:14:12.702Z,86.01
2023-02-03T12:17:41.623Z,88.68
2023-02-03T12:21:19.672Z,90.60
2023-02-03T12:24:54.558Z,91.55
2023-02-03T12:28:33.761Z,92.46
2023-02-03T12:31:53.649Z,93.15
2023-02-03T12:35:20.791Z,93.21
2023-02-03T12:38:45.604Z,94.26
2023-02-03T12:42:01.716Z,94.78
2023-02-03T12:45:24.614Z,94.95
2023-02-03T12:48:59.657Z,94.83
2023-02-03T12:52:24.320Z,94.91
2023-02-03T12:55:48.662Z,95.19
2023-02-03T12:59:09.660Z,95.34
2023-02-03T13:02:28.722Z,95.49
2023-02-03T13:05:44.944Z,95.31
2023-02-03T13:09:09.605Z,95.70
2023-02-03T13:12:47.848Z,95.89
2023-02-03T13:15:57.611Z,95.59
2023-02-03T13:19:53.673Z,95.32
2023-02-03T13:23:07.840Z,95.45
2023-02-03T13:26:52.644Z,95.62
2023-02-03T13:30:18.667Z,95.38
2023-02-03T13:33:56.638Z,95.27
2023-02-03T13:37:23.606Z,95.15
2023-02-03T13:40:58.627Z,95.19
2023-02-03T13:44:12.840Z,95.11
2023-02-03T13:47:27.775Z,95.25
2023-02-03T13:50:38.613Z,95.22
2023-02-03T13:53:50.592Z,94.90
2023-02-03T13:57:02.486Z,95.25
2023-02-03T14:00:33.661Z,95.41
2023-02-03T14:03:44.258Z,95.70
2023-02-03T14:07:06.634Z,95.76
2023-02-03T14:10:32.183Z,96.35
2023-02-03T14:13:40.640Z,96.44
2023-02-03T14:16:54.691Z,96.23
2023-02-03T14:20:03.762Z,96.02
2023-02-03T14:23:19.652Z,95.87
2023-02-03T14:26:41.726Z,96.31
2023-02-03T14:30:19.630Z,96.68
2023-02-03T14:33:50.188Z,96.68
2023-02-03T14:37:20.619Z,97.08
2023-02-03T14:40:43.689Z,96.88
2023-02-03T14:44:07.130Z,97.03
2023-02-03T14:47:40.653Z,96.54
2023-02-03T14:51:12.733Z,96.25
2023-02-03T14:54:41.196Z,96.82
2023-02-03T14:58:00.745Z,96.84
2023-02-03T15:01:25.016Z,97.00
2023-02-03T15:04:33.695Z,96.57
2023-02-03T15:07:56.689Z,96.46
2023-02-03T15:11:31.621Z,97.04
2023-02-03T15:14:46.640Z,96.94
2023-02-03T15:17:50.137Z,97.41
2023-02-03T15:21:05.652Z,97.13
2023-02-03T15:24:16.808Z,97.57
2023-02-03T15:27:34.647Z,97.98
2023-02-03T15:30:37.076Z,98.27
2023-02-03T15:33:53.632Z,98.01
2023-02-03T15:37:00.265Z,97.92
2023-02-03T15:40:22.695Z,97.82
2023-02-03T15:43:39.705Z,97.64
2023-02-03T15:46:58.819Z,98.19
2023-02-03T15:50:13.673Z,98.33
2023-02-03T15:53:45.338Z,98.67
2023-02-03T15:57:01.695Z,98.82
2023-02-03T16:00:28.719Z,98.90
2023-02-03T16:03:48.720Z,98.87
2023-02-03T16:07:04.676Z,98.23
2023-02-03T16:10:31.256Z,97.56
2023-02-03T16:13:49.722Z,97.10
2023-02-03T16:17:05.312Z,96.62
2023-02-03T16:20:31.852Z,97.09
2023-02-03T16:23:33.861Z,97.01
2023-02-03T16:26:48.698Z,96.44
2023-02-03T16:30:28.651Z,96.31
2023-02-03T16:33:38.695Z,95.52
2023-02-03T16:36:55.424Z,95.93
2023-02-03T16:40:03.747Z,95.72
2023-02-03T16:43:21.688Z,95.77
2023-02-03T16:46:29.702Z,96.57
2023-02-03T16:49:44.685Z,96.28
2023-02-03T16:52:46.536Z,95.72
2023-02-03T16:56:03.677Z,96.03
2023-02-03T16:59:12.324Z,95.67
2023-02-03T17:02:20.814Z,95.68
2023-02-03T17:05:29.622Z,95.49
2023-02-03T17:08:46.761Z,95.65
2023-02-03T17:11:55.685Z,95.16
2023-02-03T17:15:06.482Z,95.31
2023-02-03T17:18:17.722Z,95.03
2023-02-03T17:21:35.730Z,94.64
2023-02-03T17:24:37.779Z,95.08
2023-02-03T17:27:53.782Z,95.17
2023-02-03T17:31:06.337Z,95.30
2023-02-03T17:34:20.676Z,95.53
2023-02-03T17:37:22.568Z,95.66
2023-02-03T17:54:24.368Z,95.84
2023-02-03T17:57:38.734Z,95.93
2023-02-03T18:00:47.096Z,95.81
2023-02-03T18:04:04.753Z,95.70
2023-02-03T18:07:07.949Z,96.27
2023-02-03T18:10:29.943Z,96.17
2023-02-03T18:13:35.077Z,96.49
2023-02-03T18:16:50.690Z,96.23
2023-02-03T18:19:58.734Z,96.08
2023-02-03T18:23:07.909Z,95.44
2023-02-03T18:26:17.738Z,95.49
2023-02-03T18:29:28.119Z,95.27
2023-02-03T18:32:37.042Z,95.65
2023-02-03T18:35:51.699Z,94.88
2023-02-03T18:39:00.349Z,94.63
2023-02-03T18:42:14.709Z,94.28
2023-02-03T18:45:23.557Z,94.78
2023-02-03T18:48:32.734Z,93.45
2023-02-03T18:51:48.724Z,93.85
2023-02-03T18:54:57.561Z,94.06
2023-02-03T18:58:05.744Z,92.87
2023-02-03T19:01:28.846Z,92.91
2023-02-03T19:04:46.748Z,91.30
2023-02-03T19:07:55.687Z,91.38
2023-02-03T19:11:11.169Z,91.81
2023-02-03T19:14:20.718Z,91.85
2023-02-03T19:17:29.393Z,92.39
2023-02-03T19:20:43.720Z,92.00
2023-02-03T19:23:52.777Z,91.57
2023-02-03T19:27:02.664Z,91.58
2023-02-03T19:30:11.696Z,91.30
2023-02-03T19:33:20.938Z,89.68
2023-02-03T19:36:29.750Z,89.58
2023-02-03T19:39:38.793Z,87.77
2023-02-03T19:42:47.706Z,87.93
2023-02-03T19:45:56.709Z,88.90
2023-02-03T19:49:05.757Z,89.90
2023-02-03T19:52:21.769Z,90.20
2023-02-03T19:55:23.629Z,89.59
2023-02-03T19:58:40.761Z,90.36
2023-02-03T20:01:42.729Z,90.06
2023-02-03T20:04:57.779Z,90.44
2023-02-03T20:08:06.769Z,90.12
2023-02-03T20:11:22.872Z,90.94
2023-02-03T20:14:31.793Z,90.10
2023-02-03T20:17:47.804Z,88.44
2023-02-03T20:20:57.800Z,87.80
2023-02-03T20:24:14.781Z,87.50
2023-02-03T20:27:17.091Z,87.93
2023-02-03T20:30:33.170Z,87.03
2023-02-03T20:33:42.707Z,87.34
2023-02-03T20:36:51.769Z,87.70
2023-02-03T20:40:07.813Z,87.68
2023-02-03T20:43:16.873Z,87.45
2023-02-03T20:46:33.815Z,86.83
2023-02-03T20:49:43.041Z,86.99
2023-02-03T20:52:59.765Z,86.72
2023-02-03T20:56:01.963Z,85.87
2023-02-03T20:59:18.777Z,86.08
2023-02-03T21:02:27.835Z,84.93
2023-02-03T21:05:41.795Z,84.96
2023-02-03T21:08:58.801Z,83.63
2023-02-03T21:12:12.915Z,84.12
2023-02-03T21:15:37.842Z,83.41
2023-02-03T21:18:56.818Z,83.54
2023-02-03T21:22:17.514Z,82.80
2023-02-03T21:25:38.791Z,82.96
2023-02-03T21:28:50.572Z,82.28
2023-02-03T21:32:00.826Z,82.73
2023-02-03T21:35:24.208Z,82.84
2023-02-03T21:38:35.824Z,81.49
2023-02-03T21:41:51.824Z,81.72
2023-02-03T21:45:00.757Z,80.87
2023-02-03T21:48:37.852Z,80.86
2023-02-03T21:51:40.009Z,81.99
2023-02-03T21:54:55.882Z,81.33
2023-02-03T21:58:18.656Z,81.43
2023-02-03T22:01:40.793Z,81.81
2023-02-03T22:04:49.806Z,81.54
2023-02-03T22:08:20.411Z,81.75
2023-02-03T22:11:36.851Z,82.14
2023-02-03T22:14:39.041Z,81.52
2023-02-03T22:17:56.798Z,81.92
2023-02-03T22:21:04.794Z,80.88
2023-02-03T22:24:19.799Z,81.66
2023-02-03T22:27:34.845Z,81.12
2023-02-03T22:30:36.956Z,81.42
2023-02-03T22:33:52.802Z,80.74
2023-02-03T22:37:00.844Z,81.12
2023-02-03T22:40:16.842Z,81.43
2023-02-03T22:43:26.989Z,80.66
2023-02-03T22:46:35.845Z,79.95
2023-02-03T22:49:50.841Z,79.76
2023-02-03T22:52:53.117Z,80.14
2023-02-03T22:56:07.877Z,80.41
2023-02-03T22:59:09.684Z,79.51
2023-02-03T23:02:24.832Z,79.71
2023-02-03T23:05:33.822Z,79.61
2023-02-03T23:08:50.113Z,79.91
2023-02-03T23:11:58.958Z,79.64
2023-02-03T23:15:14.831Z,79.81
2023-02-03T23:18:22.870Z,78.65
2023-02-03T23:21:37.880Z,79.17
2023-02-03T23:24:46.625Z,78.16
2023-02-03T23:27:54.852Z,78.31
2023-02-03T23:31:03.651Z,78.95
2023-02-03T23:34:11.840Z,78.98
2023-02-03T23:37:26.796Z,78.43
2023-02-03T23:40:34.844Z,78.58
2023-02-03T23:43:49.910Z,78.68
2023-02-03T23:46:51.780Z,78.14
2023-02-03T23:50:06.811Z,77.58
2023-02-03T23:53:14.873Z,77.51
2023-02-03T23:56:29.823Z,78.19
2023-02-03T23:59:32.048Z,77.79
